Aérodrome :
LOGIN :

S'inscrire | Disclaimer

   EN    FR    IT 

 










Légende :    VFR   VFR Marginal   IFR   IFR Intensif   IFR Très Intensif
Visi : 
Plafond : 
>= 8 km
>= 3000ft
5 à 8 km
1000 à 3000 ft
1500m à 5 km
500 à 1000 ft
800 à 1500m
200 à 500 ft
< 800m
< 200 ft
Symboles :   Orages  Brouillard  Fortes neiges  Fortes précipitations  Vent > 20 kt
SIGMETs :   Divers  Orages  Givrage  Turbulence  Onde Orograph.  Cendres Volcan.






- Altitude de l'aérodrome : 39 ft
- Code IATA : ANR


EBAW - Anvers / Antwerpen Deurne

DERNIER METAR :
  • 240150Z AUTO 18003KT 1700 BR OVC002/// 02/01 Q1025

METARs EXPIRÉS :
  • 240120Z AUTO 18003KT 120V210 1400 R11/1700U R29/1500U // OVC001/// 02/01 Q1026
  • 240050Z AUTO VRB02KT 0900 R11/1200N R29/1200D FG VV001 02/01 Q1026
  • 240020Z AUTO VRB02KT 0700 R11/0900D R29/0900N FG BKN001/// OVC003/// 02/01 Q1026
  • 232350Z AUTO 15005KT 1000 R11/1200U R29/1600U // OVC001/// 02/01 Q1026
  • 232320Z AUTO 14003KT 100V170 1100 R11/1600D R29/1300D // OVC002/// 02/01 Q1026

TAF TAF EBAW
Valide du 24 à 00h jusqu'au 24 à 09h UTC


232300Z 2400/2409 VRB03KT 2000 BR SCT003 BKN005
TEMPO 2400/2409 1200 BR -DZ BKN002
PROB40
TEMPO 2400/2407 0500 BCFG BKN001



MET'MAP, la Météo Aéronautique d'un coup d'oeil ! - Copyright ORBIFLY Décembre 2007 - Disclaimer

ORBIFLY MET'MAP TEAM :

Programmation & Développement : Alexandra Zaïnal
Sur une idée originale de : Baudouin d'Aumeries
Assistance à la programmation : Marc-Olivier Méhu
Soutien technique & logistique : Manuel Goepfert

Contact : metmap@orbifly.com




SOURCES & CREDITS :

   NOAA